Time;durP1;ratioP1;P1;durP2;ratioP2;P2;SDS_P1;SDS_P2;PMS_P1;PMS_P2;Temp;Humidity;BMP_temperature;BMP_pressure;BME280_temperature;BME280_humidity;BME280_pressure;Samples;Min_cycle;Max_cycle;Signal;HPM_P1;HPM_P2
2021/08/16 00:01:08;;;;;;;;;;;;;;;;;;5052371;28;19913;-59
2021/08/16 00:03:34;;;;;;;;;;;;;;;;;;5052467;28;19974;-59
2021/08/16 00:06:00;;;;;;;;;;;;;;;;;;5050506;28;19967;-59
2021/08/16 00:08:26;;;;;;;;;;;;;;;;;;5052670;28;19909;-59
2021/08/16 00:10:51;;;;;;;;;;;;;;;;;;5054136;28;19908;-59
2021/08/16 00:13:20;;;;;;;;;;;;;;;;;;5052281;28;20003;-59
2021/08/16 00:15:45;;;;;;;;;;;;;;;;;;5069742;28;19920;-59
2021/08/16 00:18:11;;;;;;;;;;;;;;;;;;5071872;28;19928;-59
2021/08/16 00:20:37;;;;;;;;;;;;;;;;;;5068595;28;20280;-59
2021/08/16 00:23:03;;;;;;;;;;;;;;;;;;5075863;28;19989;-67
2021/08/16 00:25:29;;;;;;;;;;;;;;;;;;5072434;28;20352;-68
2021/08/16 00:27:55;;;;;;;;;;;;;;;;;;5072601;28;19916;-67
2021/08/16 00:30:21;;;;;;;;;;;;;;;;;;5072193;28;19912;-67
2021/08/16 00:32:47;;;;;;;;;;;;;;;;;;5068659;28;19925;-67
2021/08/16 00:35:13;;;;;;;;;;;;;;;;;;5074879;28;19953;-67
2021/08/16 00:37:38;;;;;;;;;;;;;;;;;;5072332;28;20063;-67
2021/08/16 00:40:04;;;;;;;;;;;;;;;;;;5075064;28;20190;-67
2021/08/16 00:42:30;;;;;;;;;;;;;;;;;;5076283;28;19927;-67
2021/08/16 00:44:56;;;;;;;;;;;;;;;;;;5073948;28;20327;-67
2021/08/16 00:47:22;;;;;;;;;;;;;;;;;;5076137;28;20013;-67
2021/08/16 00:49:48;;;;;;;;;;;;;;;;;;5077303;28;20346;-67
2021/08/16 00:52:14;;;;;;;;;;;;;;;;;;5075804;28;19916;-67
2021/08/16 00:54:40;;;;;;;;;;;;;;;;;;5075852;28;19944;-67
2021/08/16 00:57:05;;;;;;;;;;;;;;;;;;5074555;28;20341;-67
2021/08/16 00:59:31;;;;;;;;;;;;;;;;;;5073896;28;19929;-67
2021/08/16 01:01:57;;;;;;;;;;;;;;;;;;5078025;28;19915;-68
2021/08/16 01:04:23;;;;;;;;;;;;;;;;;;5060437;28;20279;-67
2021/08/16 01:06:49;;;;;;;;;;;;;;;;;;5075401;28;19913;-67
2021/08/16 01:09:15;;;;;;;;;;;;;;;;;;5075754;28;20016;-67
2021/08/16 01:11:41;;;;;;;;;;;;;;;;;;5071562;28;20291;-67
2021/08/16 01:14:07;;;;;;;;;;;;;;;;;;5078999;28;20028;-67
2021/08/16 01:16:33;;;;;;;;;;;;;;;;;;5075444;28;19913;-67
2021/08/16 01:18:58;;;;;;;;;;;;;;;;;;5060563;28;19920;-67
2021/08/16 01:21:24;;;;;;;;;;;;;;;;;;5075054;28;19912;-67
2021/08/16 01:23:50;;;;;;;;;;;;;;;;;;5071829;28;20414;-67
2021/08/16 01:26:16;;;;;;;;;;;;;;;;;;5077074;28;20004;-67
2021/08/16 01:28:42;;;;;;;;;;;;;;;;;;5076177;28;20388;-67
2021/08/16 01:31:08;;;;;;;;;;;;;;;;;;5075077;28;19912;-67
2021/08/16 01:33:34;;;;;;;;;;;;;;;;;;5075246;28;19912;-67
2021/08/16 01:36:00;;;;;;;;;;;;;;;;;;5073051;28;19913;-67
2021/08/16 01:38:26;;;;;;;;;;;;;;;;;;5074808;28;20437;-67
2021/08/16 01:40:51;;;;;;;;;;;;;;;;;;5076740;28;19908;-67
2021/08/16 01:43:17;;;;;;;;;;;;;;;;;;5074938;28;19912;-67
2021/08/16 01:45:43;;;;;;;;;;;;;;;;;;5074892;28;19912;-67
2021/08/16 01:48:09;;;;;;;;;;;;;;;;;;5074373;28;19912;-67
2021/08/16 01:50:35;;;;;;;;;;;;;;;;;;5070170;28;19917;-66
2021/08/16 01:53:01;;;;;;;;;;;;;;;;;;5077884;28;20387;-66
2021/08/16 01:55:27;;;;;;;;;;;;;;;;;;5074899;28;19991;-66
2021/08/16 01:57:52;;;;;;;;;;;;;;;;;;5074896;28;19916;-66
2021/08/16 02:00:18;;;;;;;;;;;;;;;;;;5074220;28;20059;-66
2021/08/16 02:02:44;;;;;;;;;;;;;;;;;;5070754;28;20006;-67
2021/08/16 02:05:10;;;;;;;;;;;;;;;;;;5077686;28;19908;-65
2021/08/16 02:07:36;;;;;;;;;;;;;;;;;;5074922;28;19967;-68
2021/08/16 02:10:02;;;;;;;;;;;;;;;;;;5074724;28;19913;-68
2021/08/16 02:12:28;;;;;;;;;;;;;;;;;;5074296;28;20228;-68
2021/08/16 02:14:54;;;;;;;;;;;;;;;;;;5071186;28;19931;-67
2021/08/16 02:17:19;;;;;;;;;;;;;;;;;;5074902;28;19930;-67
2021/08/16 02:19:47;;;;;;;;;;;;;;;;;;5076104;28;20026;-67
2021/08/16 02:22:13;;;;;;;;;;;;;;;;;;5074505;28;19913;-67
2021/08/16 02:24:39;;;;;;;;;;;;;;;;;;5074232;28;19909;-68
2021/08/16 02:27:05;;;;;;;;;;;;;;;;;;5072720;28;20003;-67
2021/08/16 02:29:31;;;;;;;;;;;;;;;;;;5072355;28;19909;-68
2021/08/16 02:31:56;;;;;;;;;;;;;;;;;;5076334;28;19920;-68
2021/08/16 02:34:22;;;;;;;;;;;;;;;;;;5074332;28;20557;-68
2021/08/16 02:36:48;;;;;;;;;;;;;;;;;;5074380;28;19916;-67
2021/08/16 02:39:14;;;;;;;;;;;;;;;;;;5073570;28;20402;-68
2021/08/16 02:41:40;;;;;;;;;;;;;;;;;;5070030;28;20005;-67
2021/08/16 02:44:06;;;;;;;;;;;;;;;;;;5077656;28;19944;-67
2021/08/16 02:46:32;;;;;;;;;;;;;;;;;;5073717;28;19909;-68
2021/08/16 02:48:58;;;;;;;;;;;;;;;;;;5074088;28;20413;-67
2021/08/16 02:51:26;;;;;;;;;;;;;;;;;;5058281;28;19911;-67
2021/08/16 02:53:51;;;;;;;;;;;;;;;;;;5070915;28;19919;-68
2021/08/16 02:56:17;;;;;;;;;;;;;;;;;;5074826;28;19908;-67
2021/08/16 02:58:43;;;;;;;;;;;;;;;;;;5076022;28;19920;-67
2021/08/16 03:01:09;;;;;;;;;;;;;;;;;;5073329;28;19908;-68
2021/08/16 03:03:35;;;;;;;;;;;;;;;;;;5073664;28;19916;-68
2021/08/16 03:06:01;;;;;;;;;;;;;;;;;;5071305;28;19909;-68
2021/08/16 03:08:27;;;;;;;;;;;;;;;;;;5055150;28;20329;-67
2021/08/16 03:10:53;;;;;;;;;;;;;;;;;;5075287;28;19912;-67
2021/08/16 03:13:19;;;;;;;;;;;;;;;;;;5072930;28;19909;-67
2021/08/16 03:15:44;;;;;;;;;;;;;;;;;;5073091;28;19974;-68
2021/08/16 03:18:10;;;;;;;;;;;;;;;;;;5073030;28;19976;-68
2021/08/16 03:20:36;;;;;;;;;;;;;;;;;;5069816;28;20054;-68
2021/08/16 03:23:02;;;;;;;;;;;;;;;;;;5076328;28;19920;-67
2021/08/16 03:25:28;;;;;;;;;;;;;;;;;;5073016;28;19919;-68
2021/08/16 03:27:54;;;;;;;;;;;;;;;;;;5072974;28;19913;-68
2021/08/16 03:30:20;;;;;;;;;;;;;;;;;;5073102;28;19927;-68
2021/08/16 03:32:48;;;;;;;;;;;;;;;;;;5068799;28;20425;-68
2021/08/16 03:35:14;;;;;;;;;;;;;;;;;;5075546;28;19954;-68
2021/08/16 03:37:40;;;;;;;;;;;;;;;;;;5072222;28;19920;-68
2021/08/16 03:40:06;;;;;;;;;;;;;;;;;;5068186;28;19970;-69
2021/08/16 03:42:32;;;;;;;;;;;;;;;;;;5069082;28;19913;-69
2021/08/16 03:44:58;;;;;;;;;;;;;;;;;;5069081;28;19944;-69
2021/08/16 03:47:24;;;;;;;;;;;;;;;;;;5070449;28;19954;-69
2021/08/16 03:49:49;;;;;;;;;;;;;;;;;;5069883;28;20344;-69
2021/08/16 03:52:15;;;;;;;;;;;;;;;;;;5073195;28;19916;-69
2021/08/16 03:54:41;;;;;;;;;;;;;;;;;;5072766;28;20003;-68
2021/08/16 03:57:07;;;;;;;;;;;;;;;;;;5071504;28;19912;-69
2021/08/16 03:59:33;;;;;;;;;;;;;;;;;;5069988;28;20170;-69
2021/08/16 04:01:59;;;;;;;;;;;;;;;;;;5075066;28;19909;-69
2021/08/16 04:04:25;;;;;;;;;;;;;;;;;;5072945;28;20295;-69
2021/08/16 04:06:52;;;;;;;;;;;;;;;;;;5073780;28;19966;-69
2021/08/16 04:09:18;;;;;;;;;;;;;;;;;;5072632;28;20275;-69
2021/08/16 04:11:44;;;;;;;;;;;;;;;;;;5068753;28;20007;-69
2021/08/16 04:14:10;;;;;;;;;;;;;;;;;;5077045;28;19913;-69
2021/08/16 04:16:36;;;;;;;;;;;;;;;;;;5076756;28;20280;-69
2021/08/16 04:19:02;;;;;;;;;;;;;;;;;;5076745;28;19963;-69
2021/08/16 04:21:27;;;;;;;;;;;;;;;;;;5076222;28;19919;-69
2021/08/16 04:23:53;;;;;;;;;;;;;;;;;;5073363;28;19919;-69
2021/08/16 04:26:19;;;;;;;;;;;;;;;;;;5077563;28;20305;-69
2021/08/16 04:28:45;;;;;;;;;;;;;;;;;;5077652;28;19912;-69
2021/08/16 04:31:11;;;;;;;;;;;;;;;;;;5076241;28;19959;-69
2021/08/16 04:33:37;;;;;;;;;;;;;;;;;;5076556;28;19917;-69
2021/08/16 04:36:03;;;;;;;;;;;;;;;;;;5074899;28;19920;-69
2021/08/16 04:38:29;;;;;;;;;;;;;;;;;;5074796;28;19924;-68
2021/08/16 04:40:54;;;;;;;;;;;;;;;;;;5078318;28;20383;-69
2021/08/16 04:43:20;;;;;;;;;;;;;;;;;;5076179;28;19912;-69
2021/08/16 04:45:46;;;;;;;;;;;;;;;;;;5076327;28;19912;-68
2021/08/16 04:48:12;;;;;;;;;;;;;;;;;;5075860;28;19919;-69
2021/08/16 04:50:38;;;;;;;;;;;;;;;;;;5072904;28;20280;-69
2021/08/16 04:53:04;;;;;;;;;;;;;;;;;;5079278;28;19909;-69
2021/08/16 04:55:30;;;;;;;;;;;;;;;;;;5076277;28;19912;-69
2021/08/16 04:57:56;;;;;;;;;;;;;;;;;;5076183;28;19916;-68
2021/08/16 05:00:26;;;;;;;;;;;;;;;;;;5075914;28;20321;-69
2021/08/16 05:02:52;;;;;;;;;;;;;;;;;;5072871;28;19913;-68
2021/08/16 05:05:19;;;;;;;;;;;;;;;;;;5077410;28;20011;-68
2021/08/16 05:07:45;;;;;;;;;;;;;;;;;;5078072;28;19999;-69
2021/08/16 05:10:10;;;;;;;;;;;;;;;;;;5075906;28;19952;-68
2021/08/16 05:12:36;;;;;;;;;;;;;;;;;;5075767;28;20318;-69
2021/08/16 05:15:02;;;;;;;;;;;;;;;;;;5058667;28;19928;-68
2021/08/16 05:17:28;;;;;;;;;;;;;;;;;;5074769;28;19936;-69
2021/08/16 05:19:54;;;;;;;;;;;;;;;;;;5077070;28;19928;-69
2021/08/16 05:22:20;;;;;;;;;;;;;;;;;;5075569;28;19920;-69
2021/08/16 05:24:46;;;;;;;;;;;;;;;;;;5075696;28;19919;-68
2021/08/16 05:27:12;;;;;;;;;;;;;;;;;;5074822;28;19916;-68
2021/08/16 05:29:38;;;;;;;;;;;;;;;;;;5072167;28;19999;-68
2021/08/16 05:32:03;;;;;;;;;;;;;;;;;;5078606;28;19931;-69
2021/08/16 05:34:29;;;;;;;;;;;;;;;;;;5075374;28;19917;-69
2021/08/16 05:36:57;;;;;;;;;;;;;;;;;;5074748;28;20328;-69
2021/08/16 05:39:22;;;;;;;;;;;;;;;;;;5073410;28;19920;-68
2021/08/16 05:41:48;;;;;;;;;;;;;;;;;;5069559;28;19913;-69
2021/08/16 05:44:14;;;;;;;;;;;;;;;;;;5075833;28;20429;-68
2021/08/16 05:46:40;;;;;;;;;;;;;;;;;;5074150;28;20128;-68
2021/08/16 05:49:06;;;;;;;;;;;;;;;;;;5073030;28;20264;-69
2021/08/16 05:51:32;;;;;;;;;;;;;;;;;;5072714;28;19958;-68
2021/08/16 05:53:58;;;;;;;;;;;;;;;;;;5072326;28;19952;-68
2021/08/16 05:56:24;;;;;;;;;;;;;;;;;;5075467;28;19919;-68
2021/08/16 05:58:50;;;;;;;;;;;;;;;;;;5076046;28;19997;-69
2021/08/16 06:01:15;;;;;;;;;;;;;;;;;;5075076;28;19919;-68
2021/08/16 06:03:41;;;;;;;;;;;;;;;;;;5074862;28;19920;-68
2021/08/16 06:06:07;;;;;;;;;;;;;;;;;;5073299;28;19908;-68
2021/08/16 06:08:33;;;;;;;;;;;;;;;;;;5072784;28;19963;-68
2021/08/16 06:10:59;;;;;;;;;;;;;;;;;;5076847;28;19916;-68
2021/08/16 06:13:25;;;;;;;;;;;;;;;;;;5074312;28;19913;-68
2021/08/16 06:15:51;;;;;;;;;;;;;;;;;;5074428;28;20350;-68
2021/08/16 06:18:17;;;;;;;;;;;;;;;;;;5074064;28;19973;-68
2021/08/16 06:20:42;;;;;;;;;;;;;;;;;;5069872;28;20042;-68
2021/08/16 06:23:08;;;;;;;;;;;;;;;;;;5078058;28;19909;-69
2021/08/16 06:25:34;;;;;;;;;;;;;;;;;;5073765;28;20007;-69
2021/08/16 06:28:00;;;;;;;;;;;;;;;;;;5074312;28;19912;-68
2021/08/16 06:30:26;;;;;;;;;;;;;;;;;;5074525;28;19916;-69
2021/08/16 06:32:52;;;;;;;;;;;;;;;;;;5056326;28;20398;-69
2021/08/16 06:35:18;;;;;;;;;;;;;;;;;;5075075;28;19916;-69
2021/08/16 06:37:46;;;;;;;;;;;;;;;;;;5075712;28;19915;-69
2021/08/16 06:40:11;;;;;;;;;;;;;;;;;;5074363;28;19917;-68
2021/08/16 06:42:37;;;;;;;;;;;;;;;;;;5074372;28;20331;-68
2021/08/16 06:45:03;;;;;;;;;;;;;;;;;;5072051;28;20177;-69
2021/08/16 06:47:29;;;;;;;;;;;;;;;;;;5073128;28;19908;-68
2021/08/16 06:49:55;;;;;;;;;;;;;;;;;;5075312;28;19913;-70
2021/08/16 06:52:21;;;;;;;;;;;;;;;;;;5073502;28;20338;-69
2021/08/16 06:54:47;;;;;;;;;;;;;;;;;;5074049;28;19919;-70
2021/08/16 06:57:13;;;;;;;;;;;;;;;;;;5073668;28;20476;-69
2021/08/16 06:59:38;;;;;;;;;;;;;;;;;;5070090;28;20012;-69
2021/08/16 07:02:04;;;;;;;;;;;;;;;;;;5076933;28;20308;-70
2021/08/16 07:04:30;;;;;;;;;;;;;;;;;;5073146;28;20052;-70
2021/08/16 07:06:56;;;;;;;;;;;;;;;;;;5073627;28;19919;-70
2021/08/16 07:09:22;;;;;;;;;;;;;;;;;;5073800;28;19951;-71
2021/08/16 07:11:48;;;;;;;;;;;;;;;;;;5069582;28;19950;-71
2021/08/16 07:14:14;;;;;;;;;;;;;;;;;;5075786;28;20256;-71
2021/08/16 07:16:40;;;;;;;;;;;;;;;;;;5074275;28;20384;-70
2021/08/16 07:19:06;;;;;;;;;;;;;;;;;;5072848;28;19920;-72
2021/08/16 07:21:31;;;;;;;;;;;;;;;;;;5073212;28;20237;-71
2021/08/16 07:23:57;;;;;;;;;;;;;;;;;;5070896;28;19958;-71
2021/08/16 07:26:23;;;;;;;;;;;;;;;;;;5073696;28;19978;-69
2021/08/16 07:28:49;;;;;;;;;;;;;;;;;;5074666;28;19912;-72
2021/08/16 07:31:15;;;;;;;;;;;;;;;;;;5072534;28;19916;-73
2021/08/16 07:33:41;;;;;;;;;;;;;;;;;;5073055;28;20302;-70
2021/08/16 07:36:07;;;;;;;;;;;;;;;;;;5072135;28;19908;-73
2021/08/16 07:38:34;;;;;;;;;;;;;;;;;;5070747;28;20463;-73
2021/08/16 07:40:59;;;;;;;;;;;;;;;;;;5076245;28;19927;-71
2021/08/16 07:43:25;;;;;;;;;;;;;;;;;;5073044;28;19912;-73
2021/08/16 07:45:51;;;;;;;;;;;;;;;;;;5073284;28;19913;-72
2021/08/16 07:48:17;;;;;;;;;;;;;;;;;;5071994;28;20442;-72
2021/08/16 07:50:43;;;;;;;;;;;;;;;;;;5068546;28;19916;-72
2021/08/16 07:53:09;;;;;;;;;;;;;;;;;;5076163;28;19943;-72
2021/08/16 07:55:35;;;;;;;;;;;;;;;;;;5073091;28;19909;-72
2021/08/16 07:58:01;;;;;;;;;;;;;;;;;;5072928;28;20455;-71
2021/08/16 08:00:27;;;;;;;;;;;;;;;;;;5057676;28;19960;-71
2021/08/16 08:02:53;;;;;;;;;;;;;;;;;;5051995;28;19913;-70
2021/08/16 08:05:18;;;;;;;;;;;;;;;;;;5073936;28;19913;-71
2021/08/16 08:07:45;;;;;;;;;;;;;;;;;;5075514;28;19920;-71
2021/08/16 08:10:10;;;;;;;;;;;;;;;;;;5073052;28;20287;-71
2021/08/16 08:12:36;;;;;;;;;;;;;;;;;;5072965;28;19912;-71
2021/08/16 08:15:02;;;;;;;;;;;;;;;;;;5070472;28;19952;-71
2021/08/16 08:17:28;;;;;;;;;;;;;;;;;;5071609;28;20019;-71
2021/08/16 08:19:55;;;;;;;;;;;;;;;;;;5074437;28;19917;-71
2021/08/16 08:22:21;;;;;;;;;;;;;;;;;;5073009;28;19913;-71
2021/08/16 08:24:46;;;;;;;;;;;;;;;;;;5072404;28;20367;-61
2021/08/16 08:27:13;;;;;;;;;;;;;;;;;;5057310;28;19966;-61
2021/08/16 08:29:39;;;;;;;;;;;;;;;;;;5069647;28;19920;-61
2021/08/16 08:32:05;;;;;;;;;;;;;;;;;;5076392;28;20399;-61
2021/08/16 08:34:30;;;;;;;;;;;;;;;;;;5072578;28;19956;-61
2021/08/16 08:36:56;;;;;;;;;;;;;;;;;;5072542;28;19916;-60
2021/08/16 08:39:22;;;;;;;;;;;;;;;;;;5072211;28;20387;-61
2021/08/16 08:41:48;;;;;;;;;;;;;;;;;;5050804;28;19944;-61
2021/08/16 08:44:14;;;;;;;;;;;;;;;;;;5074142;28;19962;-59
2021/08/16 08:46:40;;;;;;;;;;;;;;;;;;5088444;28;19915;-61
2021/08/16 08:49:07;;;;;;;;;;;;;;;;;;5072665;28;19917;-61
2021/08/16 08:51:33;;;;;;;;;;;;;;;;;;5072165;28;19919;-61
2021/08/16 08:53:59;;;;;;;;;;;;;;;;;;5070314;28;19912;-61
2021/08/16 08:56:25;;;;;;;;;;;;;;;;;;5072265;28;19947;-61
2021/08/16 08:58:51;;;;;;;;;;;;;;;;;;5073016;28;20387;-61
2021/08/16 09:01:17;;;;;;;;;;;;;;;;;;5075540;28;20385;-61
2021/08/16 09:03:43;;;;;;;;;;;;;;;;;;5075878;28;20372;-60
2021/08/16 09:06:09;;;;;;;;;;;;;;;;;;5075453;28;20003;-61
2021/08/16 09:08:35;;;;;;;;;;;;;;;;;;5073191;28;20399;-60
2021/08/16 09:11:00;;;;;;;;;;;;;;;;;;5078430;28;19908;-61
2021/08/16 09:13:26;;;;;;;;;;;;;;;;;;5075506;28;19963;-61
2021/08/16 09:15:52;;;;;;;;;;;;;;;;;;5075519;28;19920;-61
2021/08/16 09:18:18;;;;;;;;;;;;;;;;;;5073656;28;19963;-61
2021/08/16 09:20:46;;;;;;;;;;;;;;;;;;5069193;28;19912;-60
2021/08/16 09:23:14;;;;;;;;;;;;;;;;;;5076664;28;19996;-60
2021/08/16 09:25:42;;;;;;;;;;;;;;;;;;5074532;28;19913;-60
2021/08/16 09:28:08;;;;;;;;;;;;;;;;;;5073269;28;19912;-60
2021/08/16 09:30:34;;;;;;;;;;;;;;;;;;5073898;28;19965;-61
2021/08/16 09:33:00;;;;;;;;;;;;;;;;;;5072508;28;19959;-61
2021/08/16 09:35:25;;;;;;;;;;;;;;;;;;5057105;28;19975;-61
2021/08/16 09:37:51;;;;;;;;;;;;;;;;;;5076431;28;19962;-60
2021/08/16 09:40:17;;;;;;;;;;;;;;;;;;5075635;28;19912;-60
2021/08/16 09:42:43;;;;;;;;;;;;;;;;;;5075052;28;19920;-60
2021/08/16 09:45:11;;;;;;;;;;;;;;;;;;5074619;28;19912;-60
2021/08/16 09:47:37;;;;;;;;;;;;;;;;;;5072006;28;19919;-60
2021/08/16 09:50:03;;;;;;;;;;;;;;;;;;5077790;28;19908;-60
2021/08/16 09:52:29;;;;;;;;;;;;;;;;;;5075352;28;19913;-60
2021/08/16 09:54:54;;;;;;;;;;;;;;;;;;5075138;28;19918;-60
2021/08/16 09:57:20;;;;;;;;;;;;;;;;;;5074761;28;19912;-60
2021/08/16 09:59:46;;;;;;;;;;;;;;;;;;5070633;28;20364;-60
2021/08/16 10:02:12;;;;;;;;;;;;;;;;;;5078268;28;19908;-60
2021/08/16 10:04:38;;;;;;;;;;;;;;;;;;5075022;28;20360;-60
2021/08/16 10:07:04;;;;;;;;;;;;;;;;;;5074798;28;19913;-60
2021/08/16 10:09:30;;;;;;;;;;;;;;;;;;5075023;28;20021;-61
2021/08/16 10:11:56;;;;;;;;;;;;;;;;;;5071100;28;19924;-61
2021/08/16 10:14:21;;;;;;;;;;;;;;;;;;5074653;28;19921;-60
2021/08/16 10:16:48;;;;;;;;;;;;;;;;;;5075669;28;19982;-60
2021/08/16 10:19:13;;;;;;;;;;;;;;;;;;5074621;28;19916;-60
2021/08/16 10:21:40;;;;;;;;;;;;;;;;;;5074754;28;19920;-60
2021/08/16 10:24:05;;;;;;;;;;;;;;;;;;5073346;28;20349;-60
2021/08/16 10:26:31;;;;;;;;;;;;;;;;;;5072322;28;19913;-60
2021/08/16 10:28:57;;;;;;;;;;;;;;;;;;5076608;28;19912;-60
2021/08/16 10:31:23;;;;;;;;;;;;;;;;;;5074170;28;19908;-60
2021/08/16 10:33:49;;;;;;;;;;;;;;;;;;5074536;28;19966;-60
2021/08/16 10:36:15;;;;;;;;;;;;;;;;;;5074131;28;19994;-60
2021/08/16 10:38:41;;;;;;;;;;;;;;;;;;5070079;28;19974;-60
2021/08/16 10:41:08;;;;;;;;;;;;;;;;;;5077267;28;20407;-60
2021/08/16 10:43:34;;;;;;;;;;;;;;;;;;5073769;28;20275;-60
2021/08/16 10:46:00;;;;;;;;;;;;;;;;;;5074225;28;19963;-60
2021/08/16 10:48:26;;;;;;;;;;;;;;;;;;5073887;28;20004;-60
2021/08/16 10:50:51;;;;;;;;;;;;;;;;;;5070477;28;20276;-60
2021/08/16 10:53:17;;;;;;;;;;;;;;;;;;5075429;28;19915;-60
2021/08/16 10:55:43;;;;;;;;;;;;;;;;;;5073774;28;19935;-60
2021/08/16 10:58:09;;;;;;;;;;;;;;;;;;5069155;28;19916;-60
2021/08/16 11:00:35;;;;;;;;;;;;;;;;;;5070247;28;21478;-60
2021/08/16 11:03:01;;;;;;;;;;;;;;;;;;5069661;28;19963;-60
2021/08/16 11:05:27;;;;;;;;;;;;;;;;;;5071172;28;19908;-60
2021/08/16 11:07:53;;;;;;;;;;;;;;;;;;5071199;28;19909;-60
2021/08/16 11:10:19;;;;;;;;;;;;;;;;;;5069033;28;19913;-60
2021/08/16 11:12:45;;;;;;;;;;;;;;;;;;5069605;28;20015;-60
2021/08/16 11:15:11;;;;;;;;;;;;;;;;;;5070558;28;19927;-60
2021/08/16 11:17:37;;;;;;;;;;;;;;;;;;5069882;28;19920;-60
2021/08/16 11:20:04;;;;;;;;;;;;;;;;;;5071981;28;20394;-60
2021/08/16 11:22:30;;;;;;;;;;;;;;;;;;5069019;28;19928;-59
2021/08/16 11:24:56;;;;;;;;;;;;;;;;;;5068846;28;19916;-60
2021/08/16 11:27:21;;;;;;;;;;;;;;;;;;5067264;28;20319;-59
2021/08/16 11:29:47;;;;;;;;;;;;;;;;;;5069563;28;19924;-59
2021/08/16 11:32:13;;;;;;;;;;;;;;;;;;5071701;28;19916;-60
2021/08/16 11:34:39;;;;;;;;;;;;;;;;;;5069211;28;19908;-60
2021/08/16 11:37:05;;;;;;;;;;;;;;;;;;5071836;28;20326;-60
2021/08/16 11:39:31;;;;;;;;;;;;;;;;;;5071267;28;19928;-60
2021/08/16 11:41:57;;;;;;;;;;;;;;;;;;5069398;28;20281;-60
2021/08/16 11:44:23;;;;;;;;;;;;;;;;;;5069652;28;19988;-61
2021/08/16 11:46:50;;;;;;;;;;;;;;;;;;5069846;28;19938;-59
2021/08/16 11:49:16;;;;;;;;;;;;;;;;;;5068737;28;19912;-59
2021/08/16 11:51:43;;;;;;;;;;;;;;;;;;5068871;28;20383;-59
2021/08/16 11:54:09;;;;;;;;;;;;;;;;;;5068307;28;20279;-58
2021/08/16 11:56:34;;;;;;;;;;;;;;;;;;5069307;28;19919;-59
2021/08/16 11:59:00;;;;;;;;;;;;;;;;;;5070780;28;20295;-60
2021/08/16 12:01:26;;;;;;;;;;;;;;;;;;5068757;28;20287;-59
2021/08/16 12:03:53;;;;;;;;;;;;;;;;;;5068344;28;19916;-60
2021/08/16 12:06:19;;;;;;;;;;;;;;;;;;5068823;28;19913;-59
2021/08/16 12:08:44;;;;;;;;;;;;;;;;;;5068393;28;19947;-58
2021/08/16 12:11:10;;;;;;;;;;;;;;;;;;5071979;28;20283;-58
2021/08/16 12:13:36;;;;;;;;;;;;;;;;;;5068593;28;19916;-58
2021/08/16 12:16:02;;;;;;;;;;;;;;;;;;5068146;28;19924;-59
2021/08/16 12:18:28;;;;;;;;;;;;;;;;;;5068297;28;20367;-60
2021/08/16 12:20:54;;;;;;;;;;;;;;;;;;5070062;28;20035;-59
2021/08/16 12:23:20;;;;;;;;;;;;;;;;;;5070080;28;19955;-59
2021/08/16 12:25:46;;;;;;;;;;;;;;;;;;5069525;28;19916;-59
2021/08/16 12:28:12;;;;;;;;;;;;;;;;;;5068560;28;19981;-60
2021/08/16 12:30:38;;;;;;;;;;;;;;;;;;5070239;28;19912;-59
2021/08/16 12:33:04;;;;;;;;;;;;;;;;;;5069472;28;19921;-60
2021/08/16 12:35:29;;;;;;;;;;;;;;;;;;5072867;28;20391;-60
2021/08/16 12:37:56;;;;;;;;;;;;;;;;;;5076956;28;19913;-60
2021/08/16 12:40:22;;;;;;;;;;;;;;;;;;5075559;28;20003;-59
2021/08/16 12:42:48;;;;;;;;;;;;;;;;;;5075682;28;19966;-60
2021/08/16 12:45:14;;;;;;;;;;;;;;;;;;5076118;28;20020;-59
2021/08/16 12:47:40;;;;;;;;;;;;;;;;;;5072195;28;19920;-61
2021/08/16 12:50:06;;;;;;;;;;;;;;;;;;5078833;28;20295;-64
2021/08/16 12:52:32;;;;;;;;;;;;;;;;;;5075963;28;19912;-59
2021/08/16 12:54:58;;;;;;;;;;;;;;;;;;5061141;28;19916;-60
2021/08/16 12:57:24;;;;;;;;;;;;;;;;;;5076213;28;20010;-60
2021/08/16 12:59:50;;;;;;;;;;;;;;;;;;5072075;28;20013;-60
2021/08/16 13:02:16;;;;;;;;;;;;;;;;;;5077730;28;19916;-60
2021/08/16 13:04:41;;;;;;;;;;;;;;;;;;5092228;28;19912;-60
2021/08/16 13:07:07;;;;;;;;;;;;;;;;;;5075602;28;19947;-60
2021/08/16 13:09:33;;;;;;;;;;;;;;;;;;5075713;28;20383;-61
2021/08/16 13:11:59;;;;;;;;;;;;;;;;;;5071168;28;20451;-61
2021/08/16 13:14:25;;;;;;;;;;;;;;;;;;5073100;28;19973;-61
2021/08/16 13:16:51;;;;;;;;;;;;;;;;;;5056878;28;19923;-61
2021/08/16 13:19:17;;;;;;;;;;;;;;;;;;5075554;28;19917;-61
2021/08/16 13:21:43;;;;;;;;;;;;;;;;;;5075023;28;19913;-61
2021/08/16 13:24:09;;;;;;;;;;;;;;;;;;5074876;28;19908;-61
2021/08/16 13:26:35;;;;;;;;;;;;;;;;;;5073138;28;19921;-61
2021/08/16 13:29:01;;;;;;;;;;;;;;;;;;5078328;28;20360;-60
2021/08/16 13:31:27;;;;;;;;;;;;;;;;;;5075246;28;19909;-60
2021/08/16 13:33:53;;;;;;;;;;;;;;;;;;5075798;28;19919;-60
2021/08/16 13:36:18;;;;;;;;;;;;;;;;;;5071387;28;20264;-60
2021/08/16 13:38:44;;;;;;;;;;;;;;;;;;5072728;28;20348;-60
2021/08/16 13:41:10;;;;;;;;;;;;;;;;;;5090357;28;19912;-60
2021/08/16 13:43:36;;;;;;;;;;;;;;;;;;5075507;28;20325;-60
2021/08/16 13:46:02;;;;;;;;;;;;;;;;;;5075426;28;19912;-60
2021/08/16 13:48:28;;;;;;;;;;;;;;;;;;5075314;28;19912;-59
2021/08/16 13:50:54;;;;;;;;;;;;;;;;;;5071970;28;20026;-59
2021/08/16 13:53:20;;;;;;;;;;;;;;;;;;5075764;28;19915;-60
2021/08/16 13:55:45;;;;;;;;;;;;;;;;;;5077739;28;19920;-60
2021/08/16 13:58:13;;;;;;;;;;;;;;;;;;5075142;28;19916;-60
2021/08/16 14:00:38;;;;;;;;;;;;;;;;;;5075353;28;20361;-60
2021/08/16 14:03:04;;;;;;;;;;;;;;;;;;5073415;28;19921;-60
2021/08/16 14:05:30;;;;;;;;;;;;;;;;;;5073818;28;19909;-61
2021/08/16 14:07:56;;;;;;;;;;;;;;;;;;5076435;28;19918;-61
2021/08/16 14:10:22;;;;;;;;;;;;;;;;;;5074775;28;19935;-61
2021/08/16 14:12:49;;;;;;;;;;;;;;;;;;5075048;28;19921;-60
2021/08/16 14:15:15;;;;;;;;;;;;;;;;;;5074021;28;19955;-60
2021/08/16 14:17:41;;;;;;;;;;;;;;;;;;5070862;28;19959;-60
2021/08/16 14:20:07;;;;;;;;;;;;;;;;;;5078183;28;20405;-60
2021/08/16 14:22:33;;;;;;;;;;;;;;;;;;5074506;28;19912;-60
2021/08/16 14:24:59;;;;;;;;;;;;;;;;;;5073252;28;20000;-60
2021/08/16 14:27:25;;;;;;;;;;;;;;;;;;5073254;28;20379;-61
2021/08/16 14:29:50;;;;;;;;;;;;;;;;;;5072011;28;20351;-60
2021/08/16 14:32:16;;;;;;;;;;;;;;;;;;5072282;28;19970;-61
2021/08/16 14:34:42;;;;;;;;;;;;;;;;;;5074040;28;19908;-60
2021/08/16 14:37:08;;;;;;;;;;;;;;;;;;5073490;28;19913;-60
2021/08/16 14:39:34;;;;;;;;;;;;;;;;;;5073136;28;19970;-60
2021/08/16 14:42:03;;;;;;;;;;;;;;;;;;5054045;28;19917;-60
2021/08/16 14:44:29;;;;;;;;;;;;;;;;;;5073246;28;20427;-60
2021/08/16 14:46:55;;;;;;;;;;;;;;;;;;5074879;28;19995;-61
2021/08/16 14:49:21;;;;;;;;;;;;;;;;;;5073096;28;19965;-61
2021/08/16 14:51:47;;;;;;;;;;;;;;;;;;5072960;28;20330;-61
2021/08/16 14:54:12;;;;;;;;;;;;;;;;;;5071299;28;19912;-61
2021/08/16 14:56:38;;;;;;;;;;;;;;;;;;5068920;28;20544;-61
2021/08/16 14:59:04;;;;;;;;;;;;;;;;;;5069857;28;19944;-61
2021/08/16 15:01:30;;;;;;;;;;;;;;;;;;5074342;28;19919;-61
2021/08/16 15:03:56;;;;;;;;;;;;;;;;;;5074045;28;19916;-61
2021/08/16 15:06:22;;;;;;;;;;;;;;;;;;5073642;28;20293;-61
2021/08/16 15:08:48;;;;;;;;;;;;;;;;;;5068955;28;20723;-61
2021/08/16 15:11:14;;;;;;;;;;;;;;;;;;5076189;28;19922;-61
2021/08/16 15:13:40;;;;;;;;;;;;;;;;;;5075629;28;19912;-60
2021/08/16 15:16:06;;;;;;;;;;;;;;;;;;5073078;28;19931;-61
2021/08/16 15:18:32;;;;;;;;;;;;;;;;;;5072346;28;19921;-61
2021/08/16 15:20:58;;;;;;;;;;;;;;;;;;5071058;28;20463;-61
2021/08/16 15:23:24;;;;;;;;;;;;;;;;;;5073584;28;19916;-60
2021/08/16 15:25:49;;;;;;;;;;;;;;;;;;5056284;28;19912;-60
2021/08/16 15:28:15;;;;;;;;;;;;;;;;;;5070236;28;20349;-60
2021/08/16 15:30:42;;;;;;;;;;;;;;;;;;5072584;28;19912;-60
2021/08/16 15:33:08;;;;;;;;;;;;;;;;;;5069755;28;20291;-60
2021/08/16 15:35:34;;;;;;;;;;;;;;;;;;5067782;28;19920;-60
2021/08/16 15:38:00;;;;;;;;;;;;;;;;;;5074359;28;19916;-61
2021/08/16 15:40:27;;;;;;;;;;;;;;;;;;5072006;28;20013;-60
2021/08/16 15:42:52;;;;;;;;;;;;;;;;;;5072284;28;19954;-60
2021/08/16 15:45:18;;;;;;;;;;;;;;;;;;5072836;28;19947;-63
2021/08/16 15:47:44;;;;;;;;;;;;;;;;;;5067143;28;19920;-62
2021/08/16 15:50:10;;;;;;;;;;;;;;;;;;5076005;28;20335;-61
2021/08/16 15:52:36;;;;;;;;;;;;;;;;;;5071667;28;19921;-61
2021/08/16 15:55:02;;;;;;;;;;;;;;;;;;5071584;28;19952;-62
2021/08/16 15:57:28;;;;;;;;;;;;;;;;;;5056768;28;19912;-61
2021/08/16 15:59:54;;;;;;;;;;;;;;;;;;5070305;28;19927;-61
2021/08/16 16:02:20;;;;;;;;;;;;;;;;;;5074139;28;19908;-61
2021/08/16 16:04:45;;;;;;;;;;;;;;;;;;5072589;28;19913;-61
2021/08/16 16:07:11;;;;;;;;;;;;;;;;;;5062839;28;20439;-62
2021/08/16 16:09:37;;;;;;;;;;;;;;;;;;5073285;28;19969;-61
2021/08/16 16:12:03;;;;;;;;;;;;;;;;;;5075018;28;20364;-61
2021/08/16 16:14:29;;;;;;;;;;;;;;;;;;5073414;28;19916;-61
2021/08/16 16:16:55;;;;;;;;;;;;;;;;;;5076126;28;20477;-62
2021/08/16 16:19:21;;;;;;;;;;;;;;;;;;5078676;28;19921;-61
2021/08/16 16:21:47;;;;;;;;;;;;;;;;;;5075865;28;19916;-61
2021/08/16 16:24:13;;;;;;;;;;;;;;;;;;5070490;28;19919;-61
2021/08/16 16:26:39;;;;;;;;;;;;;;;;;;5087106;28;19916;-61
2021/08/16 16:29:05;;;;;;;;;;;;;;;;;;5056947;28;19916;-68
2021/08/16 16:31:31;;;;;;;;;;;;;;;;;;5077410;28;19916;-68
2021/08/16 16:33:57;;;;;;;;;;;;;;;;;;5077258;28;19913;-68
2021/08/16 16:36:23;;;;;;;;;;;;;;;;;;5075853;28;19958;-69